KGTR/GTR METAR and TAF weather

Enter ICAO airport designator
Station Type Date Time Source
KGTR METAR 2019/08/17 10:56 UTC NOAA

KGTR 171056Z 35003KT 10SM FEW002 19/19 A2995 RMK AO2 SLP148 T01940194


Station Type Date Time Source
KGTR Decoded METAR 2019/08/17 10:56 UTC NOAA

Station name not available
Aug 17, 2019 - 06:56 AM EDT / 2019.08.17 1056 UTC
Wind: from the N (350 degrees) at 3 MPH (3 KT):0
Visibility: 10 mile(s):0
Sky conditions: mostly clear
Temperature: 66.9 F (19.4 C)
Dew Point: 66.9 F (19.4 C)
Relative Humidity: 100%
Pressure (altimeter): 29.95 in. Hg (1014 hPa)
ob: KGTR 171056Z 35003KT 10SM FEW002 19/19 A2995 RMK AO2 SLP148 T01940194
cycle: 11

Station Type Date Time Source
KGTR TAF 2019/08/17 09:33 UTC NOAA

TAF
AMD KGTR 170831Z 1709/1806 00000KT 1SM BR SKC
FM171330 VRB04KT P6SM SKC

Example: see airport list